KBDR/BDR METAR and TAF weather

Enter ICAO airport designator
Station Type Date Time Source
KBDR METAR 2022/06/27 18:52 UTC NOAA

KBDR 271852Z 19012KT 10SM SCT075 BKN090 23/21 A2992 RMK AO2 RAB1756E06 SLP130 P0000 T02330211


Station Type Date Time Source
KBDR Decoded METAR 2022/06/27 18:52 UTC NOAA

SIKORSKY MEMORIAL AIRPORT, CT, United States (KBDR) 41-10N 073-08W 7M
Jun 27, 2022 - 02:52 PM EDT / 2022.06.27 1852 UTC
Wind: from the S (190 degrees) at 14 MPH (12 KT):0
Visibility: 10 mile(s):0
Sky conditions: mostly cloudy
Precipitation last hour: A trace
Temperature: 73.9 F (23.3 C)
Dew Point: 70.0 F (21.1 C)
Relative Humidity: 87%
Pressure (altimeter): 29.92 in. Hg (1013 hPa)
ob: KBDR 271852Z 19012KT 10SM SCT075 BKN090 23/21 A2992 RMK AO2 RAB1756E06 SLP130 P0000 T02330211
cycle: 19

Station Type Date Time Source
KBDR TAF 2022/06/27 18:45 UTC NOAA

TAF KBDR 271742Z 2718/2818 22011KT P6SM -SHRA BKN035 OVC050
TEMPO 2718/2721 26015G30KT 3SM TSRA OVC010CB
FM272100 22007KT P6SM VCSH BKN040
FM280200 33005KT P6SM SCT050 BKN100
FM281700 29006KT P6SM FEW250

Example: see airport list